createdAt,value
2022-10-01T00:00:16.898Z,99005.50
2022-10-01T00:01:19.727Z,99007.13
2022-10-01T00:02:22.024Z,99007.94
2022-10-01T00:03:26.272Z,99008.97
2022-10-01T00:04:28.456Z,99005.56
2022-10-01T00:05:30.644Z,98999.47
2022-10-01T00:06:32.868Z,99009.97
2022-10-01T00:07:43.411Z,99003.38
2022-10-01T00:08:48.564Z,99008.31
2022-10-01T00:09:50.840Z,99006.63
2022-10-01T00:10:53.260Z,98998.78
2022-10-01T00:11:56.092Z,98996.06
2022-10-01T00:12:58.894Z,99001.25
2022-10-01T00:14:04.157Z,99008.06
2022-10-01T00:15:13.379Z,99005.47
2022-10-01T00:16:21.936Z,98995.13
2022-10-01T00:17:24.297Z,99006.19
2022-10-01T00:18:26.471Z,99010.69
2022-10-01T00:19:28.862Z,99010.31
2022-10-01T00:20:31.033Z,99010.31
2022-10-01T00:21:33.481Z,99011.94
2022-10-01T00:22:36.279Z,99009.25
2022-10-01T00:23:38.945Z,99004.13
2022-10-01T00:24:41.237Z,99006.09
2022-10-01T00:25:43.659Z,99005.81
2022-10-01T00:26:45.925Z,99003.28
2022-10-01T00:27:48.190Z,99006.88
2022-10-01T00:28:55.432Z,99002.66
2022-10-01T00:29:57.702Z,99007.69
2022-10-01T00:30:59.986Z,99004.97
2022-10-01T00:32:02.265Z,99006.56
2022-10-01T00:33:04.491Z,99006.56
2022-10-01T00:34:06.987Z,99004.84
2022-10-01T00:35:09.811Z,99003.97
2022-10-01T00:36:12.114Z,99011.03
2022-10-01T00:37:15.157Z,99008.38
2022-10-01T00:38:17.293Z,99007.69
2022-10-01T00:39:19.452Z,99012.88
2022-10-01T00:40:21.928Z,99016.31
2022-10-01T00:41:24.639Z,99012.53
2022-10-01T00:42:26.853Z,99016.16
2022-10-01T00:43:31.869Z,99023.03
2022-10-01T00:44:37.051Z,99014.72
2022-10-01T00:45:39.524Z,99018.19
2022-10-01T00:46:45.209Z,99013.75
2022-10-01T00:48:05.287Z,99018.97
2022-10-01T00:49:12.983Z,99011.22
2022-10-01T00:50:28.870Z,99010.31
2022-10-01T00:51:38.434Z,99000.25
2022-10-01T00:52:41.695Z,99005.34
2022-10-01T00:53:45.484Z,99002.56
2022-10-01T00:54:55.580Z,99010.16
2022-10-01T00:55:59.923Z,99004.06
2022-10-01T00:57:04.806Z,99003.81
2022-10-01T00:58:09.113Z,99002.91
2022-10-01T00:59:12.084Z,98998.34
2022-10-01T01:00:14.864Z,98998.25
2022-10-01T01:01:17.229Z,98990.41
2022-10-01T01:02:19.693Z,98998.22
2022-10-01T01:03:21.926Z,98995.63
2022-10-01T01:04:24.124Z,98993.03
2022-10-01T01:05:26.570Z,98998.03
2022-10-01T01:06:29.359Z,98994.53
2022-10-01T01:07:33.850Z,98999.63
2022-10-01T01:08:36.111Z,98983.25
2022-10-01T01:09:42.168Z,98980.38
2022-10-01T01:11:03.883Z,98988.84
2022-10-01T01:12:24.716Z,98986.59
2022-10-01T01:13:55.780Z,98982.25
2022-10-01T01:15:20.872Z,98978.69
2022-10-01T01:16:33.940Z,98982.06
2022-10-01T01:17:57.574Z,98982.91
2022-10-01T01:19:12.784Z,98970.75
2022-10-01T01:20:29.921Z,98976.66
2022-10-01T01:21:41.143Z,98974.13
2022-10-01T01:23:03.781Z,98965.28
2022-10-01T01:24:08.609Z,98969.47
2022-10-01T01:25:25.914Z,98957.13
2022-10-01T01:26:54.081Z,98966.84
2022-10-01T01:28:22.680Z,98955.44
2022-10-01T01:29:32.613Z,98954.50
2022-10-01T01:30:38.932Z,98954.50
2022-10-01T01:31:48.695Z,98949.78
2022-10-01T01:33:03.144Z,98948.75
2022-10-01T01:34:12.387Z,98947.78
2022-10-01T01:35:22.905Z,98940.50
2022-10-01T01:36:33.185Z,98944.59
2022-10-01T01:37:40.111Z,98939.41
2022-10-01T01:38:51.902Z,98938.44
2022-10-01T01:39:57.754Z,98941.38
2022-10-01T01:41:02.244Z,98934.19
2022-10-01T01:42:11.090Z,98930.59
2022-10-01T01:43:18.495Z,98941.88
2022-10-01T01:44:25.758Z,98927.97
2022-10-01T01:45:30.692Z,98934.63
2022-10-01T01:46:36.873Z,98924.81
2022-10-01T01:47:42.096Z,98925.53
2022-10-01T01:48:49.169Z,98926.19
2022-10-01T01:49:52.711Z,98916.47
2022-10-01T01:51:04.551Z,98920.06
2022-10-01T01:52:17.187Z,98923.06
2022-10-01T01:53:20.172Z,98914.84
2022-10-01T01:54:22.492Z,98920.06
2022-10-01T01:55:26.955Z,98921.88
2022-10-01T01:56:31.077Z,98919.59
2022-10-01T01:57:36.355Z,98907.22
2022-10-01T01:58:39.199Z,98918.22
2022-10-01T01:59:41.951Z,98916.47
2022-10-01T02:00:44.964Z,98917.41
2022-10-01T02:01:49.306Z,98915.22
2022-10-01T02:02:53.818Z,98909.34
2022-10-01T02:03:56.331Z,98916.41
2022-10-01T02:05:07.132Z,98908.88
2022-10-01T02:06:26.495Z,98906.19
2022-10-01T02:07:48.863Z,98922.56
2022-10-01T02:09:17.604Z,98910.59
2022-10-01T02:10:57.681Z,98906.19
2022-10-01T02:12:37.460Z,98910.47
2022-10-01T02:14:01.732Z,98906.66
2022-10-01T02:15:21.268Z,98905.03
2022-10-01T02:16:32.309Z,98917.72
2022-10-01T02:17:50.537Z,98915.50
2022-10-01T02:19:03.714Z,98910.47
2022-10-01T02:20:21.068Z,98903.41
2022-10-01T02:21:40.436Z,98907.91
2022-10-01T02:22:50.103Z,98905.03
2022-10-01T02:24:03.322Z,98901.81
2022-10-01T02:25:08.436Z,98901.50
2022-10-01T02:26:17.764Z,98898.03
2022-10-01T02:28:01.425Z,98893.78
2022-10-01T02:29:08.151Z,98892.47
2022-10-01T02:30:12.156Z,98888.81
2022-10-01T02:31:16.459Z,98892.94
2022-10-01T02:32:19.846Z,98884.47
2022-10-01T02:33:27.575Z,98892.88
2022-10-01T02:34:30.799Z,98892.75
2022-10-01T02:35:34.761Z,98891.94
2022-10-01T02:36:41.056Z,98881.47
2022-10-01T02:37:45.775Z,98884.84
2022-10-01T02:38:50.632Z,98885.44
2022-10-01T02:39:56.233Z,98888.00
2022-10-01T02:41:04.941Z,98884.19
2022-10-01T02:42:11.484Z,98886.09
2022-10-01T02:43:18.440Z,98889.75
2022-10-01T02:44:28.662Z,98887.19
2022-10-01T02:45:33.424Z,98891.50
2022-10-01T02:47:16.982Z,98885.78
2022-10-01T02:48:19.639Z,98880.19
2022-10-01T02:49:21.938Z,98889.97
2022-10-01T02:50:29.845Z,98890.84
2022-10-01T02:52:09.230Z,98881.47
2022-10-01T02:53:21.237Z,98892.41
2022-10-01T02:54:35.485Z,98885.78
2022-10-01T02:55:40.675Z,98881.19
2022-10-01T02:57:01.749Z,98876.13
2022-10-01T02:58:04.198Z,98887.19
2022-10-01T02:59:07.784Z,98886.09
2022-10-01T03:00:13.182Z,98890.34
2022-10-01T03:01:15.381Z,98891.91
2022-10-01T03:02:18.536Z,98885.91
2022-10-01T03:03:20.790Z,98884.19
2022-10-01T03:04:23.024Z,98884.75
2022-10-01T03:05:26.250Z,98877.16
2022-10-01T03:06:28.673Z,98878.84
2022-10-01T03:07:38.114Z,98877.09
2022-10-01T03:08:40.350Z,98876.38
2022-10-01T03:09:42.616Z,98882.91
2022-10-01T03:10:46.896Z,98878.03
2022-10-01T03:11:49.264Z,98876.78
2022-10-01T03:12:51.507Z,98870.63
2022-10-01T03:13:54.102Z,98881.19
2022-10-01T03:14:56.372Z,98879.94
2022-10-01T03:15:58.617Z,98879.00
2022-10-01T03:17:00.856Z,98874.63
2022-10-01T03:18:03.103Z,98875.69
2022-10-01T03:19:05.362Z,98867.44
2022-10-01T03:20:08.056Z,98872.94
2022-10-01T03:21:10.308Z,98863.91
2022-10-01T03:22:15.736Z,98869.72
2022-10-01T03:23:17.957Z,98860.19
2022-10-01T03:24:20.140Z,98862.00
2022-10-01T03:25:22.355Z,98862.69
2022-10-01T03:26:26.828Z,98857.97
2022-10-01T03:27:29.123Z,98862.16
2022-10-01T03:28:31.299Z,98852.63
2022-10-01T03:29:33.629Z,98852.63
2022-10-01T03:30:35.887Z,98841.38
2022-10-01T03:31:38.519Z,98849.00
2022-10-01T03:32:40.906Z,98845.56
2022-10-01T03:33:43.157Z,98843.84
2022-10-01T03:34:45.380Z,98842.66
2022-10-01T03:35:47.606Z,98835.38
2022-10-01T03:36:52.119Z,98830.94
2022-10-01T03:37:54.326Z,98838.16
2022-10-01T03:38:56.595Z,98844.28
2022-10-01T03:39:58.784Z,98848.69
2022-10-01T03:41:00.983Z,98834.31
2022-10-01T03:42:04.228Z,98840.28
2022-10-01T03:43:06.760Z,98834.19
2022-10-01T03:44:08.929Z,98839.50
2022-10-01T03:45:11.198Z,98844.47
2022-10-01T03:46:13.487Z,98835.06
2022-10-01T03:47:15.875Z,98840.47
2022-10-01T03:48:18.282Z,98837.69
2022-10-01T03:49:20.699Z,98842.13
2022-10-01T03:50:22.942Z,98834.19
2022-10-01T03:51:25.136Z,98839.88
2022-10-01T03:52:27.508Z,98839.00
2022-10-01T03:53:31.241Z,98833.00
2022-10-01T03:54:33.740Z,98832.59
2022-10-01T03:55:36.099Z,98835.56
2022-10-01T03:56:40.776Z,98832.22
2022-10-01T03:57:43.418Z,98831.44
2022-10-01T03:58:45.611Z,98828.59
2022-10-01T03:59:47.826Z,98823.16
2022-10-01T04:00:51.266Z,98823.28
2022-10-01T04:01:54.008Z,98814.59
2022-10-01T04:02:56.302Z,98818.91
2022-10-01T04:03:59.019Z,98814.59
2022-10-01T04:05:01.344Z,98807.56
2022-10-01T04:06:03.643Z,98819.84
2022-10-01T04:07:05.787Z,98807.88
2022-10-01T04:08:08.234Z,98811.56
2022-10-01T04:09:10.406Z,98820.53
2022-10-01T04:10:12.644Z,98824.66
2022-10-01T04:11:14.858Z,98826.91
2022-10-01T04:12:17.693Z,98820.28
2022-10-01T04:13:19.898Z,98823.41
2022-10-01T04:14:22.124Z,98825.22
2022-10-01T04:15:24.962Z,98819.84
2022-10-01T04:16:27.231Z,98817.81
2022-10-01T04:17:29.424Z,98811.13
2022-10-01T04:18:31.687Z,98815.88
2022-10-01T04:19:33.940Z,98815.75
2022-10-01T04:20:37.534Z,98813.38
2022-10-01T04:21:39.734Z,98815.25
2022-10-01T04:22:42.848Z,98811.69
2022-10-01T04:23:45.110Z,98809.06
2022-10-01T04:24:47.282Z,98814.03
2022-10-01T04:25:49.607Z,98815.38
2022-10-01T04:26:52.026Z,98810.13
2022-10-01T04:27:57.302Z,98815.47
2022-10-01T04:28:59.564Z,98806.59
2022-10-01T04:30:01.848Z,98813.38
2022-10-01T04:31:23.053Z,98813.91
2022-10-01T04:32:25.285Z,98812.00
2022-10-01T04:33:27.452Z,98801.50
2022-10-01T04:34:49.033Z,98816.25
2022-10-01T04:35:51.180Z,98808.38
2022-10-01T04:36:53.334Z,98807.19
2022-10-01T04:37:58.316Z,98793.16
2022-10-01T04:39:02.488Z,98795.63
2022-10-01T04:40:06.088Z,98799.88
2022-10-01T04:41:09.232Z,98809.50
2022-10-01T04:42:13.263Z,98808.59
2022-10-01T04:43:15.511Z,98810.28
2022-10-01T04:44:17.623Z,98803.78
2022-10-01T04:45:19.896Z,98804.63
2022-10-01T04:46:22.121Z,98805.53
2022-10-01T04:47:24.371Z,98806.31
2022-10-01T04:48:26.637Z,98806.16
2022-10-01T04:49:29.202Z,98805.09
2022-10-01T04:50:31.730Z,98797.03
2022-10-01T04:51:34.179Z,98800.34
2022-10-01T04:52:36.882Z,98803.38
2022-10-01T04:53:39.112Z,98805.78
2022-10-01T04:54:41.327Z,98808.63
2022-10-01T04:55:43.714Z,98812.88
2022-10-01T04:56:45.916Z,98810.25
2022-10-01T04:57:48.408Z,98813.13
2022-10-01T04:58:50.722Z,98811.25
2022-10-01T04:59:53.030Z,98812.94
2022-10-01T05:00:58.548Z,98813.94
2022-10-01T05:02:03.942Z,98806.47
2022-10-01T05:03:06.259Z,98805.88
2022-10-01T05:04:08.733Z,98802.03
2022-10-01T05:05:10.954Z,98804.34
2022-10-01T05:06:13.171Z,98811.22
2022-10-01T05:07:15.416Z,98805.97
2022-10-01T05:08:17.631Z,98807.50
2022-10-01T05:09:19.787Z,98814.25
2022-10-01T05:10:22.965Z,98806.00
2022-10-01T05:11:25.185Z,98804.97
2022-10-01T05:12:28.367Z,98801.50
2022-10-01T05:13:31.796Z,98806.28
2022-10-01T05:14:34.337Z,98801.47
2022-10-01T05:15:36.596Z,98802.78
2022-10-01T05:16:38.903Z,98799.47
2022-10-01T05:17:41.111Z,98794.16
2022-10-01T05:18:43.469Z,98788.72
2022-10-01T05:19:46.619Z,98788.69
2022-10-01T05:20:48.812Z,98796.97
2022-10-01T05:21:51.875Z,98791.47
2022-10-01T05:22:54.817Z,98787.31
2022-10-01T05:23:57.010Z,98797.09
2022-10-01T05:25:00.227Z,98795.03
2022-10-01T05:26:05.516Z,98797.19
2022-10-01T05:27:12.082Z,98797.94
2022-10-01T05:28:19.860Z,98797.13
2022-10-01T05:29:24.465Z,98797.19
2022-10-01T05:30:26.637Z,98785.03
2022-10-01T05:31:28.856Z,98798.94
2022-10-01T05:32:31.364Z,98799.81
2022-10-01T05:33:34.117Z,98790.72
2022-10-01T05:34:36.464Z,98789.69
2022-10-01T05:35:40.872Z,98798.25
2022-10-01T05:36:43.044Z,98792.16
2022-10-01T05:37:45.274Z,98792.22
2022-10-01T05:38:52.281Z,98780.72
2022-10-01T05:39:54.545Z,98778.47
2022-10-01T05:40:56.738Z,98780.25
2022-10-01T05:42:03.918Z,98766.25
2022-10-01T05:43:09.300Z,98775.94
2022-10-01T05:44:11.527Z,98760.13
2022-10-01T05:45:13.949Z,98766.94
2022-10-01T05:46:16.214Z,98768.00
2022-10-01T05:47:20.200Z,98770.47
2022-10-01T05:48:22.378Z,98764.25
2022-10-01T05:49:25.332Z,98761.47
2022-10-01T05:50:31.463Z,98762.88
2022-10-01T05:51:36.029Z,98753.03
2022-10-01T05:52:38.476Z,98752.91
2022-10-01T05:53:40.699Z,98753.97
2022-10-01T05:54:42.972Z,98742.81
2022-10-01T05:55:45.226Z,98742.97
2022-10-01T05:56:47.395Z,98740.94
2022-10-01T05:57:57.496Z,98732.19
2022-10-01T05:58:59.976Z,98733.06
2022-10-01T06:00:02.351Z,98735.31
2022-10-01T06:01:14.237Z,98735.16
2022-10-01T06:02:16.575Z,98734.16
2022-10-01T06:03:18.911Z,98730.78
2022-10-01T06:04:21.169Z,98728.03
2022-10-01T06:05:23.717Z,98735.72
2022-10-01T06:06:27.527Z,98734.63
2022-10-01T06:07:32.605Z,98727.16
2022-10-01T06:08:35.558Z,98719.28
2022-10-01T06:09:37.720Z,98723.81
2022-10-01T06:10:40.353Z,98724.69
2022-10-01T06:11:42.553Z,98728.19
2022-10-01T06:12:45.038Z,98722.06
2022-10-01T06:13:47.404Z,98725.16
2022-10-01T06:14:49.588Z,98724.88
2022-10-01T06:15:52.827Z,98731.47
2022-10-01T06:16:55.124Z,98726.25
2022-10-01T06:18:01.973Z,98723.63
2022-10-01T06:19:04.228Z,98722.00
2022-10-01T06:20:06.689Z,98732.56
2022-10-01T06:21:09.985Z,98725.41
2022-10-01T06:22:12.165Z,98726.25
2022-10-01T06:23:14.375Z,98732.41
2022-10-01T06:24:16.548Z,98734.81
2022-10-01T06:25:18.705Z,98736.72
2022-10-01T06:26:21.267Z,98732.50
2022-10-01T06:27:23.421Z,98740.22
2022-10-01T06:28:25.780Z,98728.78
2022-10-01T06:29:27.988Z,98739.69
2022-10-01T06:30:32.282Z,98743.25
2022-10-01T06:31:34.764Z,98745.00
2022-10-01T06:32:37.137Z,98749.16
2022-10-01T06:33:39.327Z,98744.16
2022-10-01T06:34:41.508Z,98751.50
2022-10-01T06:35:53.076Z,98751.50
2022-10-01T06:36:55.409Z,98747.47
2022-10-01T06:37:58.122Z,98746.72
2022-10-01T06:39:00.439Z,98751.72
2022-10-01T06:40:02.734Z,98742.16
2022-10-01T06:41:05.322Z,98758.31
2022-10-01T06:42:07.564Z,98745.31
2022-10-01T06:43:10.353Z,98748.94
2022-10-01T06:44:12.863Z,98747.94
2022-10-01T06:45:16.067Z,98743.00
2022-10-01T06:46:18.501Z,98750.09
2022-10-01T06:47:20.760Z,98744.47
2022-10-01T06:48:23.330Z,98746.00
2022-10-01T06:49:26.673Z,98746.22
2022-10-01T06:50:29.426Z,98740.44
2022-10-01T06:51:50.317Z,98737.53
2022-10-01T06:52:52.877Z,98738.75
2022-10-01T06:53:55.099Z,98738.66
2022-10-01T06:54:57.444Z,98729.97
2022-10-01T06:56:07.775Z,98741.16
2022-10-01T06:57:10.032Z,98740.47
2022-10-01T06:58:21.056Z,98736.66
2022-10-01T06:59:23.303Z,98729.78
2022-10-01T07:00:26.669Z,98730.81
2022-10-01T07:01:29.025Z,98732.66
2022-10-01T07:02:32.384Z,98728.09
2022-10-01T07:03:35.759Z,98716.53
2022-10-01T07:04:38.258Z,98716.47
2022-10-01T07:05:40.865Z,98712.44
2022-10-01T07:06:43.079Z,98717.94
2022-10-01T07:07:45.342Z,98719.09
2022-10-01T07:08:50.591Z,98716.81
2022-10-01T07:09:56.417Z,98714.75
2022-10-01T07:11:03.383Z,98714.59
2022-10-01T07:12:06.336Z,98723.16
2022-10-01T07:13:14.027Z,98726.03
2022-10-01T07:14:16.336Z,98716.75
2022-10-01T07:15:22.778Z,98720.91
2022-10-01T07:16:25.147Z,98723.31
2022-10-01T07:17:27.550Z,98722.19
2022-10-01T07:18:29.762Z,98714.75
2022-10-01T07:19:32.152Z,98721.00
2022-10-01T07:20:39.338Z,98720.44
2022-10-01T07:21:41.618Z,98723.41
2022-10-01T07:22:44.420Z,98731.03
2022-10-01T07:23:47.994Z,98728.50
2022-10-01T07:24:51.483Z,98714.81
2022-10-01T07:25:53.714Z,98714.66
2022-10-01T07:26:56.026Z,98714.59
2022-10-01T07:28:01.178Z,98718.38
2022-10-01T07:29:04.595Z,98712.91
2022-10-01T07:30:07.526Z,98712.03
2022-10-01T07:31:11.392Z,98722.47
2022-10-01T07:32:13.806Z,98721.38
2022-10-01T07:33:18.884Z,98723.63
2022-10-01T07:34:22.224Z,98725.09
2022-10-01T07:35:24.676Z,98727.50
2022-10-01T07:36:26.883Z,98730.81
2022-10-01T07:37:29.211Z,98729.03
2022-10-01T07:38:33.374Z,98729.41
2022-10-01T07:39:36.622Z,98728.44
2022-10-01T07:40:38.853Z,98736.72
2022-10-01T07:41:42.746Z,98736.44
2022-10-01T07:42:55.794Z,98726.88
2022-10-01T07:43:58.060Z,98734.34
2022-10-01T07:45:02.025Z,98729.91
2022-10-01T07:46:07.092Z,98733.13
2022-10-01T07:47:09.388Z,98737.66
2022-10-01T07:48:11.581Z,98742.63
2022-10-01T07:49:14.982Z,98746.53
2022-10-01T07:50:17.266Z,98742.31
2022-10-01T07:51:19.504Z,98743.03
2022-10-01T07:52:21.847Z,98741.28
2022-10-01T07:53:25.196Z,98738.34
2022-10-01T07:54:27.421Z,98744.88
2022-10-01T07:55:30.703Z,98728.16
2022-10-01T07:56:32.940Z,98736.03
2022-10-01T07:57:35.200Z,98744.78
2022-10-01T07:58:37.543Z,98743.63
2022-10-01T07:59:40.846Z,98747.34
2022-10-01T08:00:43.473Z,98745.31
2022-10-01T08:01:49.709Z,98739.00
2022-10-01T08:02:55.840Z,98758.19
2022-10-01T08:03:58.114Z,98748.59
2022-10-01T08:05:18.249Z,98743.50
2022-10-01T08:06:25.423Z,98740.94
2022-10-01T08:07:28.099Z,98746.41
2022-10-01T08:08:31.359Z,98735.91
2022-10-01T08:09:33.799Z,98736.66
2022-10-01T08:10:38.112Z,98739.75
2022-10-01T08:11:40.935Z,98737.31
2022-10-01T08:12:43.798Z,98743.38
2022-10-01T08:13:46.032Z,98728.94
2022-10-01T08:14:48.408Z,98739.38
2022-10-01T08:15:53.544Z,98734.03
2022-10-01T08:16:56.697Z,98733.19
2022-10-01T08:18:02.582Z,98741.78
2022-10-01T08:19:05.018Z,98737.41
2022-10-01T08:20:08.795Z,98746.31
2022-10-01T08:21:11.014Z,98753.97
2022-10-01T08:22:13.334Z,98757.22
2022-10-01T08:23:17.046Z,98746.16
2022-10-01T08:24:19.981Z,98743.91
2022-10-01T08:25:22.268Z,98747.16
2022-10-01T08:26:24.567Z,98753.31
2022-10-01T08:27:27.747Z,98748.41
2022-10-01T08:28:30.118Z,98752.56
2022-10-01T08:29:34.258Z,98760.16
2022-10-01T08:30:39.827Z,98757.03
2022-10-01T08:31:42.188Z,98749.88
2022-10-01T08:32:44.487Z,98751.59
2022-10-01T08:33:46.898Z,98749.78
2022-10-01T08:34:53.324Z,98751.94
2022-10-01T08:36:02.793Z,98764.47
2022-10-01T08:37:05.301Z,98760.13
2022-10-01T08:38:08.056Z,98750.97
2022-10-01T08:39:12.645Z,98748.78
2022-10-01T08:40:15.070Z,98748.16
2022-10-01T08:41:29.045Z,98744.69
2022-10-01T08:42:49.628Z,98744.66
2022-10-01T08:43:52.958Z,98737.34
2022-10-01T08:44:55.293Z,98747.88
2022-10-01T08:46:04.420Z,98749.16
2022-10-01T08:47:18.409Z,98742.16
2022-10-01T08:48:38.627Z,98725.59
2022-10-01T08:49:50.815Z,98735.50
2022-10-01T08:51:04.871Z,98723.03
2022-10-01T08:52:24.795Z,98733.41
2022-10-01T08:53:55.084Z,98740.63
2022-10-01T08:55:07.731Z,98744.00
2022-10-01T08:56:24.323Z,98741.97
2022-10-01T08:57:34.681Z,98738.28
2022-10-01T08:58:45.279Z,98739.75
2022-10-01T08:59:58.735Z,98740.31
2022-10-01T09:01:01.107Z,98739.38
2022-10-01T09:02:15.491Z,98743.72
2022-10-01T09:03:18.691Z,98743.72
2022-10-01T09:04:20.932Z,98748.81
2022-10-01T09:05:36.282Z,98745.59
2022-10-01T09:06:38.530Z,98750.19
2022-10-01T09:08:08.086Z,98745.66
2022-10-01T09:09:22.180Z,98749.16
2022-10-01T09:10:33.106Z,98756.41
2022-10-01T09:11:47.093Z,98749.81
2022-10-01T09:13:04.359Z,98758.28
2022-10-01T09:14:34.597Z,98756.00
2022-10-01T09:16:08.607Z,98748.00
2022-10-01T09:17:37.262Z,98750.31
2022-10-01T09:19:15.929Z,98767.34
2022-10-01T09:20:27.143Z,98759.00
2022-10-01T09:21:58.301Z,98747.47
2022-10-01T09:23:15.277Z,98765.00
2022-10-01T09:24:40.573Z,98758.06
2022-10-01T09:25:46.037Z,98748.34
2022-10-01T09:26:49.148Z,98734.50
2022-10-01T09:27:58.348Z,98736.81
2022-10-01T09:29:02.176Z,98742.00
2022-10-01T09:30:18.536Z,98729.16
2022-10-01T09:31:33.707Z,98740.19
2022-10-01T09:32:41.897Z,98728.59
2022-10-01T09:34:11.739Z,98718.59
2022-10-01T09:35:47.044Z,98724.28
2022-10-01T09:37:15.293Z,98700.78
2022-10-01T09:38:24.601Z,98678.00
2022-10-01T09:39:35.017Z,98674.88
2022-10-01T09:40:49.603Z,98655.66
2022-10-01T09:41:52.135Z,98653.69
2022-10-01T09:42:54.557Z,98657.34
2022-10-01T09:43:57.048Z,98646.75
2022-10-01T09:44:59.946Z,98662.84
2022-10-01T09:46:07.117Z,98667.25
2022-10-01T09:47:20.871Z,98659.69
2022-10-01T09:48:28.735Z,98674.72
2022-10-01T09:49:36.226Z,98666.72
2022-10-01T09:50:43.246Z,98671.22
2022-10-01T09:51:49.871Z,98674.06
2022-10-01T09:52:53.482Z,98681.38
2022-10-01T09:54:17.133Z,98679.38
2022-10-01T09:55:22.100Z,98680.22
2022-10-01T09:56:29.538Z,98675.31
2022-10-01T09:57:43.117Z,98672.16
2022-10-01T09:58:52.744Z,98671.84
2022-10-01T10:00:04.240Z,98668.97
2022-10-01T10:01:18.187Z,98653.88
2022-10-01T10:02:27.895Z,98659.91
2022-10-01T10:03:31.880Z,98670.75
2022-10-01T10:04:34.397Z,98667.84
2022-10-01T10:05:49.312Z,98676.44
2022-10-01T10:06:59.892Z,98671.00
2022-10-01T10:08:13.021Z,98687.47
2022-10-01T10:09:18.641Z,98686.13
2022-10-01T10:10:26.238Z,98673.88
2022-10-01T10:11:31.828Z,98685.59
2022-10-01T10:12:34.755Z,98684.06
2022-10-01T10:13:41.307Z,98682.44
2022-10-01T10:14:44.815Z,98678.38
2022-10-01T10:15:52.643Z,98679.53
2022-10-01T10:16:56.608Z,98682.63
2022-10-01T10:18:19.252Z,98679.22
2022-10-01T10:19:28.068Z,98681.50
2022-10-01T10:20:39.624Z,98692.28
2022-10-01T10:21:52.067Z,98683.84
2022-10-01T10:22:54.317Z,98697.28
2022-10-01T10:23:59.397Z,98689.97
2022-10-01T10:25:12.246Z,98681.28
2022-10-01T10:26:20.245Z,98684.03
2022-10-01T10:27:29.046Z,98685.19
2022-10-01T10:28:46.660Z,98695.53
2022-10-01T10:29:48.939Z,98690.59
2022-10-01T10:30:54.547Z,98702.50
2022-10-01T10:31:58.256Z,98711.09
2022-10-01T10:33:07.586Z,98703.66
2022-10-01T10:34:18.594Z,98700.22
2022-10-01T10:35:25.644Z,98707.19
2022-10-01T10:36:34.170Z,98715.25
2022-10-01T10:37:42.292Z,98709.84
2022-10-01T10:38:50.920Z,98709.94
2022-10-01T10:39:54.356Z,98711.72
2022-10-01T10:40:57.639Z,98709.25
2022-10-01T10:42:01.095Z,98703.13
2022-10-01T10:43:03.352Z,98707.00
2022-10-01T10:44:07.615Z,98699.38
2022-10-01T10:45:17.814Z,98708.13
2022-10-01T10:46:36.084Z,98712.16
2022-10-01T10:47:45.291Z,98713.88
2022-10-01T10:48:58.647Z,98701.56
2022-10-01T10:50:05.381Z,98705.69
2022-10-01T10:51:08.093Z,98710.34
2022-10-01T10:52:29.668Z,98718.50
2022-10-01T10:53:46.273Z,98716.16
2022-10-01T10:54:50.362Z,98718.44
2022-10-01T10:56:01.021Z,98724.19
2022-10-01T10:57:28.027Z,98719.75
2022-10-01T10:58:33.380Z,98708.25
2022-10-01T10:59:35.667Z,98727.66
2022-10-01T11:00:47.725Z,98716.16
2022-10-01T11:01:50.745Z,98720.31
2022-10-01T11:02:58.817Z,98720.50
2022-10-01T11:04:01.544Z,98714.22
2022-10-01T11:05:18.104Z,98722.66
2022-10-01T11:06:20.406Z,98731.50
2022-10-01T11:07:24.444Z,98728.44
2022-10-01T11:08:29.035Z,98727.44
2022-10-01T11:09:52.347Z,98731.22
2022-10-01T11:11:32.390Z,98725.56
2022-10-01T11:12:50.385Z,98734.34
2022-10-01T11:14:24.075Z,98720.91
2022-10-01T11:15:45.160Z,98723.63
2022-10-01T11:17:24.744Z,98724.34
2022-10-01T11:18:38.809Z,98724.09
2022-10-01T11:20:09.009Z,98736.22
2022-10-01T11:21:29.179Z,98740.72
2022-10-01T11:22:43.718Z,98737.50
2022-10-01T11:24:04.103Z,98737.50
2022-10-01T11:25:34.320Z,98734.75
2022-10-01T11:26:55.376Z,98746.13
2022-10-01T11:28:18.537Z,98741.09
2022-10-01T11:29:29.723Z,98738.88
2022-10-01T11:30:37.333Z,98746.91
2022-10-01T11:32:02.975Z,98731.94
2022-10-01T11:33:22.188Z,98740.03
2022-10-01T11:34:43.451Z,98747.41
2022-10-01T11:36:16.169Z,98731.72
2022-10-01T11:37:35.155Z,98750.38
2022-10-01T11:38:46.923Z,98741.41
2022-10-01T11:39:53.699Z,98742.94
2022-10-01T11:41:05.266Z,98753.94
2022-10-01T11:42:16.974Z,98744.28
2022-10-01T11:43:27.809Z,98755.53
2022-10-01T11:44:35.594Z,98760.16
2022-10-01T11:45:45.573Z,98747.78
2022-10-01T11:47:11.555Z,98753.34
2022-10-01T11:48:25.513Z,98760.78
2022-10-01T11:50:03.634Z,98758.75
2022-10-01T11:51:15.602Z,98747.53
2022-10-01T11:52:32.659Z,98752.69
2022-10-01T11:54:01.137Z,98771.56
2022-10-01T11:55:46.561Z,98775.16
2022-10-01T11:57:11.299Z,98770.53
2022-10-01T11:58:43.559Z,98778.38
2022-10-01T11:59:52.873Z,98774.31
2022-10-01T12:01:05.785Z,98759.34
2022-10-01T12:02:30.520Z,98779.97
2022-10-01T12:03:48.833Z,98773.56
2022-10-01T12:05:06.792Z,98776.47
2022-10-01T12:06:14.881Z,98794.53
2022-10-01T12:07:29.518Z,98787.88
2022-10-01T12:08:36.707Z,98786.66
2022-10-01T12:09:51.110Z,98788.72
2022-10-01T12:11:02.232Z,98783.25
2022-10-01T12:12:11.903Z,98797.38
2022-10-01T12:13:34.238Z,98797.84
2022-10-01T12:14:55.273Z,98794.94
2022-10-01T12:16:10.458Z,98798.72
2022-10-01T12:17:38.551Z,98799.16
2022-10-01T12:19:00.880Z,98794.00
2022-10-01T12:20:05.824Z,98809.25
2022-10-01T12:21:17.198Z,98808.59
2022-10-01T12:22:38.027Z,98806.63
2022-10-01T12:23:51.532Z,98803.44
2022-10-01T12:24:54.258Z,98809.06
2022-10-01T12:26:15.365Z,98801.91
2022-10-01T12:27:37.017Z,98817.72
2022-10-01T12:28:54.503Z,98827.63
2022-10-01T12:30:19.406Z,98817.16
2022-10-01T12:32:01.071Z,98812.09
2022-10-01T12:33:27.933Z,98813.41
2022-10-01T12:34:54.357Z,98817.47
2022-10-01T12:36:07.268Z,98830.81
2022-10-01T12:37:40.255Z,98832.50
2022-10-01T12:39:27.574Z,98837.13
2022-10-01T12:41:14.697Z,98830.56
2022-10-01T12:42:31.163Z,98821.97
2022-10-01T12:43:49.266Z,98824.50
2022-10-01T12:44:57.547Z,98820.84
2022-10-01T12:46:27.449Z,98821.88
2022-10-01T12:47:47.323Z,98821.97
2022-10-01T12:48:56.814Z,98827.53
2022-10-01T12:50:12.909Z,98822.34
2022-10-01T12:51:35.857Z,98814.25
2022-10-01T12:53:16.361Z,98820.72
2022-10-01T12:54:24.469Z,98828.38
2022-10-01T12:56:07.232Z,98827.59
2022-10-01T12:57:43.167Z,98830.59
2022-10-01T12:59:10.280Z,98832.44
2022-10-01T13:00:24.465Z,98837.66
2022-10-01T13:01:36.335Z,98840.75
2022-10-01T13:03:04.510Z,98830.84
2022-10-01T13:04:31.546Z,98840.88
2022-10-01T13:05:53.897Z,98832.53
2022-10-01T13:07:35.075Z,98837.56
2022-10-01T13:08:55.218Z,98840.88
2022-10-01T13:10:23.021Z,98829.41
2022-10-01T13:11:50.371Z,98831.56
2022-10-01T13:12:58.367Z,98825.22
2022-10-01T13:14:03.326Z,98837.19
2022-10-01T13:15:16.122Z,98826.50
2022-10-01T13:16:30.754Z,98833.91
2022-10-01T13:18:03.096Z,98824.97
2022-10-01T13:19:36.812Z,98834.28
2022-10-01T13:21:05.701Z,98830.06
2022-10-01T13:22:38.276Z,98835.03
2022-10-01T13:24:00.748Z,98845.03